ITY33T EDDM-LIML
Flight info
| Callsign | ITY33T |
|---|---|
| Flight time | 0h 47m |
| Altitude | 24000 |
| Route | MERSI5S MERSI Y100 ATMAX Z999 KPT/N0350F230 Z999 BEMKI L607 XEBIX Y740 NATAG DCT LORLO DCT ATPED DCT LUSIL LUSIL4C |
| Aircraft | A20N/M-VGDW/C |
Departure
| Time | 2026-05-07 20:37 |
|---|---|
| Airport | Munich Airport (EDDM) |
Arrival
| Time | 2026-05-07 21:25 |
|---|---|
| Airport | Milano Linate Airport (LIML) |
| Time | Latitude | Longitude | Altitude | Speed | Heading |
|---|---|---|---|---|---|
| 2026-05-07 20:12 | 48.35840 | 11.79238 | 1485 ft | 0 kts | 263° |
| 2026-05-07 20:25 | 48.35842 | 11.79259 | 1479 ft | 3 kts | 263° |
| 2026-05-07 20:25 | 48.35845 | 11.79294 | 1475 ft | 3 kts | 263° |
| 2026-05-07 20:25 | 48.35848 | 11.79329 | 1472 ft | 3 kts | 259° |
| 2026-05-07 20:25 | 48.35854 | 11.79362 | 1474 ft | 3 kts | 240° |
| 2026-05-07 20:26 | 48.35866 | 11.79382 | 1471 ft | 2 kts | 176° |
| 2026-05-07 20:26 | 48.35868 | 11.79382 | 1471 ft | 0 kts | 175° |
| 2026-05-07 20:30 | 48.35860 | 11.79383 | 1476 ft | 4 kts | 174° |
| 2026-05-07 20:30 | 48.35817 | 11.79390 | 1472 ft | 9 kts | 173° |
| 2026-05-07 20:30 | 48.35734 | 11.79405 | 1485 ft | 14 kts | 174° |
| 2026-05-07 20:31 | 48.35622 | 11.79425 | 1483 ft | 18 kts | 174° |
| 2026-05-07 20:31 | 48.35489 | 11.79448 | 1480 ft | 20 kts | 172° |
| 2026-05-07 20:31 | 48.35342 | 11.79474 | 1475 ft | 22 kts | 173° |
| 2026-05-07 20:31 | 48.35179 | 11.79502 | 1477 ft | 24 kts | 175° |
| 2026-05-07 20:32 | 48.35005 | 11.79532 | 1478 ft | 24 kts | 172° |
| 2026-05-07 20:32 | 48.34878 | 11.79557 | 1485 ft | 19 kts | 173° |
| 2026-05-07 20:32 | 48.34824 | 11.79570 | 1475 ft | 0 kts | 156° |
| 2026-05-07 20:32 | 48.34800 | 11.79598 | 1481 ft | 9 kts | 129° |
| 2026-05-07 20:33 | 48.34802 | 11.79700 | 1480 ft | 12 kts | 83° |
| 2026-05-07 20:33 | 48.34813 | 11.79845 | 1481 ft | 16 kts | 83° |
| 2026-05-07 20:33 | 48.34826 | 11.80022 | 1474 ft | 18 kts | 83° |
| 2026-05-07 20:33 | 48.34762 | 11.80234 | 1481 ft | 18 kts | 153° |
| 2026-05-07 20:34 | 48.34679 | 11.80252 | 1475 ft | 18 kts | 173° |
| 2026-05-07 20:34 | 48.34579 | 11.80270 | 1475 ft | 11 kts | 174° |
| 2026-05-07 20:34 | 48.34575 | 11.80271 | 1477 ft | 0 kts | 175° |
| 2026-05-07 20:35 | 48.34573 | 11.80271 | 1478 ft | 2 kts | 175° |
| 2026-05-07 20:35 | 48.34548 | 11.80274 | 1482 ft | 6 kts | 175° |
| 2026-05-07 20:35 | 48.34495 | 11.80281 | 1478 ft | 9 kts | 175° |
| 2026-05-07 20:35 | 48.34463 | 11.80227 | 1485 ft | 0 kts | 266° |
| 2026-05-07 20:36 | 48.34459 | 11.80148 | 1485 ft | 26 kts | 263° |
| 2026-05-07 20:37 | 48.34407 | 11.79502 | 1473 ft | 96 kts | 264° |
| 2026-05-07 20:37 | 48.34307 | 11.78215 | 1477 ft | 148 kts | 263° |
| 2026-05-07 20:37 | 48.34185 | 11.76554 | 1809 ft | 163 kts | 265° |
| 2026-05-07 20:37 | 48.34088 | 11.74822 | 2398 ft | 167 kts | 268° |
| 2026-05-07 20:38 | 48.34036 | 11.73090 | 3115 ft | 163 kts | 267° |
| 2026-05-07 20:38 | 48.33928 | 11.71334 | 3558 ft | 177 kts | 263° |
| 2026-05-07 20:38 | 48.33754 | 11.69413 | 3902 ft | 195 kts | 262° |
| 2026-05-07 20:38 | 48.33547 | 11.67292 | 4293 ft | 215 kts | 262° |
| 2026-05-07 20:39 | 48.33322 | 11.64967 | 4850 ft | 233 kts | 262° |
| 2026-05-07 20:39 | 48.33111 | 11.62465 | 5605 ft | 251 kts | 263° |
| 2026-05-07 20:39 | 48.32918 | 11.59783 | 6421 ft | 262 kts | 264° |
| 2026-05-07 20:39 | 48.32731 | 11.57084 | 6882 ft | 263 kts | 264° |
| 2026-05-07 20:40 | 48.32537 | 11.54322 | 7481 ft | 267 kts | 264° |
| 2026-05-07 20:40 | 48.32339 | 11.51567 | 8723 ft | 263 kts | 264° |
| 2026-05-07 20:40 | 48.32139 | 11.48826 | 9874 ft | 265 kts | 263° |
| 2026-05-07 20:40 | 48.31934 | 11.46068 | 10844 ft | 269 kts | 263° |
| 2026-05-07 20:41 | 48.31725 | 11.43256 | 11777 ft | 274 kts | 263° |
| 2026-05-07 20:41 | 48.31510 | 11.40398 | 12733 ft | 278 kts | 264° |
| 2026-05-07 20:41 | 48.31292 | 11.37486 | 13680 ft | 283 kts | 264° |
| 2026-05-07 20:41 | 48.31069 | 11.34532 | 14529 ft | 287 kts | 264° |
| 2026-05-07 20:42 | 48.30690 | 11.31567 | 15340 ft | 292 kts | 250° |
| 2026-05-07 20:42 | 48.29614 | 11.28952 | 16133 ft | 300 kts | 228° |
| 2026-05-07 20:42 | 48.27892 | 11.27132 | 16933 ft | 310 kts | 207° |
| 2026-05-07 20:42 | 48.25865 | 11.25830 | 17395 ft | 328 kts | 205° |
| 2026-05-07 20:43 | 48.23691 | 11.24459 | 17614 ft | 350 kts | 205° |
| 2026-05-07 20:43 | 48.21387 | 11.23006 | 17954 ft | 366 kts | 205° |
| 2026-05-07 20:43 | 48.19023 | 11.21510 | 18659 ft | 370 kts | 205° |
| 2026-05-07 20:43 | 48.16637 | 11.19995 | 19353 ft | 374 kts | 205° |
| 2026-05-07 20:44 | 48.14231 | 11.18462 | 20043 ft | 377 kts | 206° |
| 2026-05-07 20:44 | 48.11893 | 11.16655 | 20715 ft | 379 kts | 213° |
| 2026-05-07 20:44 | 48.09632 | 11.14590 | 21369 ft | 383 kts | 213° |
| 2026-05-07 20:44 | 48.07337 | 11.12499 | 22032 ft | 387 kts | 213° |
| 2026-05-07 20:45 | 48.05030 | 11.10406 | 22727 ft | 390 kts | 213° |
| 2026-05-07 20:45 | 48.02694 | 11.08294 | 23370 ft | 394 kts | 213° |
| 2026-05-07 20:45 | 48.00334 | 11.06164 | 23862 ft | 398 kts | 213° |
| 2026-05-07 20:45 | 47.97960 | 11.04025 | 24026 ft | 399 kts | 213° |
| 2026-05-07 20:46 | 47.95639 | 11.01847 | 24071 ft | 399 kts | 215° |
| 2026-05-07 20:46 | 47.93330 | 10.99572 | 24074 ft | 398 kts | 216° |
| 2026-05-07 20:46 | 47.91024 | 10.97279 | 24071 ft | 398 kts | 216° |
| 2026-05-07 20:46 | 47.88706 | 10.94986 | 24075 ft | 400 kts | 216° |
| 2026-05-07 20:47 | 47.86388 | 10.92709 | 24075 ft | 399 kts | 215° |
| 2026-05-07 20:47 | 47.84067 | 10.90443 | 24075 ft | 399 kts | 215° |
| 2026-05-07 20:47 | 47.81742 | 10.88178 | 24075 ft | 399 kts | 215° |
| 2026-05-07 20:47 | 47.79419 | 10.85921 | 24072 ft | 399 kts | 215° |
| 2026-05-07 20:48 | 47.77089 | 10.83661 | 24070 ft | 399 kts | 215° |
| 2026-05-07 20:48 | 47.74768 | 10.81411 | 24072 ft | 399 kts | 215° |
| 2026-05-07 20:48 | 47.72438 | 10.79154 | 24072 ft | 399 kts | 215° |
| 2026-05-07 20:48 | 47.70115 | 10.76907 | 24073 ft | 399 kts | 215° |
| 2026-05-07 20:49 | 47.67790 | 10.74662 | 24079 ft | 399 kts | 215° |
| 2026-05-07 20:49 | 47.65467 | 10.72418 | 24079 ft | 399 kts | 215° |
| 2026-05-07 20:49 | 47.63138 | 10.70173 | 24070 ft | 399 kts | 215° |
| 2026-05-07 20:49 | 47.60841 | 10.67961 | 24071 ft | 399 kts | 215° |
| 2026-05-07 20:50 | 47.58486 | 10.65694 | 24068 ft | 399 kts | 215° |
| 2026-05-07 20:50 | 47.56159 | 10.63458 | 24074 ft | 399 kts | 215° |
| 2026-05-07 20:50 | 47.53827 | 10.61219 | 24074 ft | 399 kts | 215° |
| 2026-05-07 20:50 | 47.51531 | 10.59017 | 24065 ft | 398 kts | 215° |
| 2026-05-07 20:51 | 47.49199 | 10.56784 | 24072 ft | 398 kts | 215° |
| 2026-05-07 20:51 | 47.46872 | 10.54557 | 24074 ft | 398 kts | 215° |
| 2026-05-07 20:51 | 47.44547 | 10.52336 | 24071 ft | 398 kts | 215° |
| 2026-05-07 20:51 | 47.42174 | 10.50210 | 24074 ft | 400 kts | 208° |
| 2026-05-07 20:52 | 47.39534 | 10.48841 | 24066 ft | 403 kts | 194° |
| 2026-05-07 20:52 | 47.36778 | 10.48454 | 24074 ft | 410 kts | 180° |
| 2026-05-07 20:52 | 47.33881 | 10.48828 | 24069 ft | 410 kts | 176° |
| 2026-05-07 20:52 | 47.31053 | 10.49252 | 24068 ft | 409 kts | 177° |
| 2026-05-07 20:53 | 47.28215 | 10.49669 | 24071 ft | 409 kts | 177° |
| 2026-05-07 20:53 | 47.25385 | 10.50077 | 24073 ft | 408 kts | 177° |
| 2026-05-07 20:53 | 47.22554 | 10.50481 | 24074 ft | 409 kts | 177° |
| 2026-05-07 20:53 | 47.19718 | 10.50884 | 24072 ft | 409 kts | 177° |
| 2026-05-07 20:54 | 47.16881 | 10.51287 | 24072 ft | 409 kts | 177° |
| 2026-05-07 20:54 | 47.14045 | 10.51689 | 24071 ft | 409 kts | 177° |
| 2026-05-07 20:54 | 47.11212 | 10.52091 | 24073 ft | 409 kts | 177° |
| 2026-05-07 20:54 | 47.08380 | 10.52493 | 24070 ft | 408 kts | 177° |
| 2026-05-07 20:55 | 47.05560 | 10.53072 | 24068 ft | 410 kts | 171° |
| 2026-05-07 20:55 | 47.02796 | 10.54157 | 24071 ft | 413 kts | 165° |
| 2026-05-07 20:55 | 47.00084 | 10.55404 | 24078 ft | 415 kts | 165° |
| 2026-05-07 20:55 | 46.97330 | 10.56663 | 24076 ft | 413 kts | 165° |
| 2026-05-07 20:56 | 46.94589 | 10.57908 | 24075 ft | 412 kts | 165° |
| 2026-05-07 20:56 | 46.91849 | 10.59147 | 24076 ft | 412 kts | 165° |
| 2026-05-07 20:56 | 46.89104 | 10.60385 | 24063 ft | 413 kts | 166° |
| 2026-05-07 20:56 | 46.86353 | 10.61626 | 24072 ft | 414 kts | 166° |
| 2026-05-07 20:57 | 46.83602 | 10.62865 | 24072 ft | 414 kts | 166° |
| 2026-05-07 20:57 | 46.80847 | 10.64104 | 24074 ft | 413 kts | 166° |
| 2026-05-07 20:57 | 46.78093 | 10.65342 | 24074 ft | 413 kts | 166° |
| 2026-05-07 20:57 | 46.75366 | 10.66516 | 24073 ft | 412 kts | 170° |
| 2026-05-07 20:58 | 46.72506 | 10.67030 | 24078 ft | 408 kts | 182° |
| 2026-05-07 20:58 | 46.69701 | 10.66648 | 24084 ft | 404 kts | 194° |
| 2026-05-07 20:58 | 46.67042 | 10.65576 | 24068 ft | 400 kts | 200° |
| 2026-05-07 20:58 | 46.64378 | 10.64385 | 24072 ft | 399 kts | 200° |
| 2026-05-07 20:59 | 46.61719 | 10.63199 | 24071 ft | 401 kts | 200° |
| 2026-05-07 20:59 | 46.59045 | 10.62014 | 24083 ft | 401 kts | 200° |
| 2026-05-07 20:59 | 46.56371 | 10.60839 | 24067 ft | 401 kts | 200° |
| 2026-05-07 20:59 | 46.53700 | 10.59668 | 24079 ft | 401 kts | 200° |
| 2026-05-07 21:00 | 46.51028 | 10.58500 | 24067 ft | 400 kts | 200° |
| 2026-05-07 21:00 | 46.48364 | 10.57335 | 24066 ft | 401 kts | 200° |
| 2026-05-07 21:00 | 46.45691 | 10.56169 | 24073 ft | 400 kts | 200° |
| 2026-05-07 21:00 | 46.43021 | 10.55006 | 24071 ft | 401 kts | 200° |
| 2026-05-07 21:01 | 46.40350 | 10.53841 | 24068 ft | 400 kts | 200° |
| 2026-05-07 21:01 | 46.37680 | 10.52677 | 24067 ft | 400 kts | 200° |
| 2026-05-07 21:01 | 46.35015 | 10.51517 | 24066 ft | 400 kts | 200° |
| 2026-05-07 21:01 | 46.32342 | 10.50355 | 24069 ft | 400 kts | 200° |
| 2026-05-07 21:02 | 46.29670 | 10.49194 | 24062 ft | 401 kts | 200° |
| 2026-05-07 21:02 | 46.27004 | 10.48038 | 24062 ft | 400 kts | 200° |
| 2026-05-07 21:02 | 46.24333 | 10.46882 | 24071 ft | 400 kts | 200° |
| 2026-05-07 21:02 | 46.21662 | 10.45727 | 24070 ft | 401 kts | 200° |
| 2026-05-07 21:03 | 46.19036 | 10.44566 | 23974 ft | 396 kts | 203° |
| 2026-05-07 21:03 | 46.16614 | 10.42787 | 23533 ft | 389 kts | 218° |
| 2026-05-07 21:03 | 46.14642 | 10.40163 | 22918 ft | 383 kts | 233° |
| 2026-05-07 21:03 | 46.13237 | 10.36947 | 22279 ft | 377 kts | 244° |
| 2026-05-07 21:04 | 46.12063 | 10.33581 | 21649 ft | 374 kts | 244° |
| 2026-05-07 21:04 | 46.10895 | 10.30243 | 21028 ft | 371 kts | 244° |
| 2026-05-07 21:04 | 46.09727 | 10.26925 | 20392 ft | 369 kts | 244° |
| 2026-05-07 21:04 | 46.08568 | 10.23646 | 19833 ft | 365 kts | 244° |
| 2026-05-07 21:05 | 46.07418 | 10.20407 | 19212 ft | 363 kts | 244° |
| 2026-05-07 21:05 | 46.06274 | 10.17183 | 18687 ft | 360 kts | 243° |
| 2026-05-07 21:05 | 46.05097 | 10.14068 | 18058 ft | 358 kts | 239° |
| 2026-05-07 21:05 | 46.03639 | 10.11166 | 17399 ft | 357 kts | 231° |
| 2026-05-07 21:06 | 46.01920 | 10.08594 | 16824 ft | 355 kts | 223° |
| 2026-05-07 21:06 | 46.00067 | 10.06259 | 16232 ft | 354 kts | 223° |
| 2026-05-07 21:06 | 45.98229 | 10.03933 | 15639 ft | 350 kts | 223° |
| 2026-05-07 21:06 | 45.96404 | 10.01618 | 15034 ft | 348 kts | 223° |
| 2026-05-07 21:07 | 45.94595 | 9.99318 | 14464 ft | 346 kts | 223° |
| 2026-05-07 21:07 | 45.92798 | 9.97033 | 13918 ft | 344 kts | 223° |
| 2026-05-07 21:07 | 45.91031 | 9.94793 | 13388 ft | 339 kts | 223° |
| 2026-05-07 21:07 | 45.89258 | 9.92546 | 12761 ft | 339 kts | 223° |
| 2026-05-07 21:08 | 45.87492 | 9.90310 | 12177 ft | 337 kts | 222° |
| 2026-05-07 21:08 | 45.85735 | 9.88086 | 11577 ft | 337 kts | 222° |
| 2026-05-07 21:08 | 45.83980 | 9.85867 | 10992 ft | 336 kts | 222° |
| 2026-05-07 21:08 | 45.82229 | 9.83657 | 10431 ft | 334 kts | 221° |
| 2026-05-07 21:09 | 45.80506 | 9.81486 | 10159 ft | 324 kts | 221° |
| 2026-05-07 21:09 | 45.78825 | 9.79369 | 9670 ft | 321 kts | 221° |
| 2026-05-07 21:09 | 45.77151 | 9.77263 | 9142 ft | 318 kts | 221° |
| 2026-05-07 21:09 | 45.75494 | 9.75182 | 8633 ft | 316 kts | 221° |
| 2026-05-07 21:10 | 45.73843 | 9.73109 | 8099 ft | 314 kts | 221° |
| 2026-05-07 21:10 | 45.72225 | 9.71077 | 7613 ft | 312 kts | 221° |
| 2026-05-07 21:10 | 45.70614 | 9.69056 | 7372 ft | 302 kts | 221° |
| 2026-05-07 21:10 | 45.69067 | 9.67118 | 7260 ft | 288 kts | 221° |
| 2026-05-07 21:11 | 45.67590 | 9.65267 | 7061 ft | 278 kts | 221° |
| 2026-05-07 21:11 | 45.66140 | 9.63451 | 6692 ft | 276 kts | 221° |
| 2026-05-07 21:11 | 45.63267 | 9.59859 | 5913 ft | 273 kts | 221° |
| 2026-05-07 21:12 | 45.61843 | 9.58080 | 5514 ft | 271 kts | 221° |
| 2026-05-07 21:12 | 45.60425 | 9.56311 | 5165 ft | 268 kts | 221° |
| 2026-05-07 21:12 | 45.59030 | 9.54571 | 5045 ft | 270 kts | 221° |
| 2026-05-07 21:12 | 45.57612 | 9.52804 | 5021 ft | 270 kts | 221° |
| 2026-05-07 21:13 | 45.56237 | 9.50985 | 5021 ft | 272 kts | 227° |
| 2026-05-07 21:13 | 45.55103 | 9.48814 | 5021 ft | 272 kts | 239° |
| 2026-05-07 21:13 | 45.54169 | 9.46573 | 5019 ft | 272 kts | 237° |
| 2026-05-07 21:13 | 45.52804 | 9.44670 | 5021 ft | 272 kts | 209° |
| 2026-05-07 21:14 | 45.51020 | 9.43898 | 5021 ft | 271 kts | 182° |
| 2026-05-07 21:14 | 45.49139 | 9.43979 | 4902 ft | 270 kts | 176° |
| 2026-05-07 21:14 | 45.47277 | 9.44119 | 4465 ft | 274 kts | 176° |
| 2026-05-07 21:14 | 45.45382 | 9.44259 | 4196 ft | 267 kts | 176° |
| 2026-05-07 21:15 | 45.43566 | 9.44391 | 4083 ft | 255 kts | 176° |
| 2026-05-07 21:15 | 45.41833 | 9.44521 | 3984 ft | 244 kts | 176° |
| 2026-05-07 21:15 | 45.40174 | 9.44648 | 3890 ft | 233 kts | 176° |
| 2026-05-07 21:15 | 45.38588 | 9.44768 | 3804 ft | 223 kts | 176° |
| 2026-05-07 21:16 | 45.37076 | 9.44871 | 3715 ft | 214 kts | 176° |
| 2026-05-07 21:16 | 45.36078 | 9.44934 | 3554 ft | 213 kts | 176° |
| 2026-05-07 21:16 | 45.34614 | 9.45023 | 3289 ft | 213 kts | 176° |
| 2026-05-07 21:16 | 45.33134 | 9.45119 | 3056 ft | 212 kts | 176° |
| 2026-05-07 21:17 | 45.31669 | 9.45217 | 3007 ft | 213 kts | 176° |
| 2026-05-07 21:17 | 45.30183 | 9.45316 | 3001 ft | 213 kts | 176° |
| 2026-05-07 21:17 | 45.28709 | 9.45415 | 3000 ft | 212 kts | 176° |
| 2026-05-07 21:17 | 45.27236 | 9.45418 | 2991 ft | 212 kts | 191° |
| 2026-05-07 21:18 | 45.25936 | 9.44454 | 2999 ft | 215 kts | 226° |
| 2026-05-07 21:18 | 45.25217 | 9.42607 | 3002 ft | 216 kts | 253° |
| 2026-05-07 21:18 | 45.24827 | 9.40542 | 2995 ft | 217 kts | 256° |
| 2026-05-07 21:18 | 45.24479 | 9.38466 | 2992 ft | 215 kts | 256° |
| 2026-05-07 21:19 | 45.24119 | 9.36398 | 3006 ft | 217 kts | 256° |
| 2026-05-07 21:19 | 45.23743 | 9.34358 | 3007 ft | 215 kts | 255° |
| 2026-05-07 21:19 | 45.23605 | 9.32260 | 3009 ft | 216 kts | 281° |
| 2026-05-07 21:19 | 45.24234 | 9.30355 | 2985 ft | 216 kts | 315° |
| 2026-05-07 21:20 | 45.25520 | 9.29355 | 2995 ft | 211 kts | 352° |
| 2026-05-07 21:20 | 45.27004 | 9.29207 | 3015 ft | 214 kts | 0° |
| 2026-05-07 21:20 | 45.28480 | 9.29216 | 3016 ft | 209 kts | 2° |
| 2026-05-07 21:20 | 45.29886 | 9.29209 | 2992 ft | 196 kts | 359° |
| 2026-05-07 21:21 | 45.31235 | 9.29120 | 2775 ft | 193 kts | 357° |
| 2026-05-07 21:21 | 45.32520 | 9.28983 | 2554 ft | 179 kts | 356° |
| 2026-05-07 21:21 | 45.33712 | 9.28859 | 2302 ft | 165 kts | 356° |
| 2026-05-07 21:21 | 45.34812 | 9.28741 | 2077 ft | 153 kts | 356° |
| 2026-05-07 21:22 | 45.35833 | 9.28633 | 1883 ft | 140 kts | 355° |
| 2026-05-07 21:22 | 45.36771 | 9.28533 | 1698 ft | 134 kts | 355° |
| 2026-05-07 21:22 | 45.37705 | 9.28433 | 1517 ft | 134 kts | 354° |
| 2026-05-07 21:22 | 45.38634 | 9.28334 | 1335 ft | 133 kts | 354° |
| 2026-05-07 21:23 | 45.39553 | 9.28238 | 1159 ft | 132 kts | 355° |
| 2026-05-07 21:23 | 45.40465 | 9.28180 | 944 ft | 129 kts | 354° |
| 2026-05-07 21:23 | 45.41349 | 9.28065 | 763 ft | 128 kts | 353° |
| 2026-05-07 21:23 | 45.42242 | 9.27965 | 602 ft | 130 kts | 354° |
| 2026-05-07 21:24 | 45.43135 | 9.27859 | 421 ft | 129 kts | 354° |
| 2026-05-07 21:24 | 45.44009 | 9.27767 | 354 ft | 119 kts | 354° |
| 2026-05-07 21:24 | 45.44666 | 9.27687 | 359 ft | 66 kts | 356° |
| 2026-05-07 21:24 | 45.45053 | 9.27645 | 358 ft | 53 kts | 355° |
| 2026-05-07 21:25 | 45.45285 | 9.27650 | 359 ft | 12 kts | 13° |
| 2026-05-07 21:25 | 45.45375 | 9.27706 | 361 ft | 16 kts | 27° |
| 2026-05-07 21:25 | 45.45464 | 9.27805 | 363 ft | 16 kts | 35° |
| 2026-05-07 21:25 | 45.45550 | 9.27815 | 363 ft | 11 kts | 1° |
| 2026-05-07 21:26 | 45.45637 | 9.27817 | 367 ft | 14 kts | 1° |
| 2026-05-07 21:26 | 45.45749 | 9.27820 | 363 ft | 18 kts | 359° |
| 2026-05-07 21:26 | 45.45876 | 9.27822 | 363 ft | 7 kts | 5° |
| 2026-05-07 21:26 | 45.45888 | 9.27825 | 363 ft | 4 kts | 9° |
| 2026-05-07 21:27 | 45.45920 | 9.27849 | 365 ft | 7 kts | 15° |
| 2026-05-07 21:27 | 45.45945 | 9.27849 | 363 ft | 2 kts | 358° |
| 2026-05-07 21:27 | 45.45960 | 9.27850 | 363 ft | 2 kts | 0° |
| 2026-05-07 21:27 | 45.45972 | 9.27850 | 366 ft | 1 kts | 1° |